sensor_id;sensor_type;location;lat;lon;timestamp;P1;durP1;ratioP1;P2;durP2;ratioP2
78443;SDS011;67739;52.986;8.894;2023-02-15T00:01:09;9.35;;;3.33;;
78443;SDS011;67739;52.986;8.894;2023-02-15T00:03:36;11.18;;;3.42;;
78443;SDS011;67739;52.986;8.894;2023-02-15T00:06:02;9.90;;;3.30;;
78443;SDS011;67739;52.986;8.894;2023-02-15T00:08:28;8.82;;;2.78;;
78443;SDS011;67739;52.986;8.894;2023-02-15T00:11:02;10.23;;;2.75;;
78443;SDS011;67739;52.986;8.894;2023-02-15T00:13:37;11.55;;;3.25;;
78443;SDS011;67739;52.986;8.894;2023-02-15T00:16:06;12.05;;;4.22;;
78443;SDS011;67739;52.986;8.894;2023-02-15T00:18:33;12.80;;;3.97;;
78443;SDS011;67739;52.986;8.894;2023-02-15T00:20:58;9.50;;;3.08;;
78443;SDS011;67739;52.986;8.894;2023-02-15T00:23:28;11.20;;;3.38;;
78443;SDS011;67739;52.986;8.894;2023-02-15T00:26:02;9.73;;;3.38;;
78443;SDS011;67739;52.986;8.894;2023-02-15T00:28:29;8.32;;;3.03;;
78443;SDS011;67739;52.986;8.894;2023-02-15T00:30:56;10.43;;;3.30;;
78443;SDS011;67739;52.986;8.894;2023-02-15T00:33:27;9.60;;;3.78;;
78443;SDS011;67739;52.986;8.894;2023-02-15T00:35:56;9.57;;;3.35;;
78443;SDS011;67739;52.986;8.894;2023-02-15T00:38:22;12.13;;;3.83;;
78443;SDS011;67739;52.986;8.894;2023-02-15T00:40:51;9.02;;;2.97;;
78443;SDS011;67739;52.986;8.894;2023-02-15T00:43:20;10.88;;;3.72;;
78443;SDS011;67739;52.986;8.894;2023-02-15T00:45:46;9.98;;;3.28;;
78443;SDS011;67739;52.986;8.894;2023-02-15T00:48:11;10.45;;;4.43;;
78443;SDS011;67739;52.986;8.894;2023-02-15T00:50:37;11.00;;;3.67;;
78443;SDS011;67739;52.986;8.894;2023-02-15T00:53:02;8.77;;;3.22;;
78443;SDS011;67739;52.986;8.894;2023-02-15T00:55:27;9.98;;;3.38;;
78443;SDS011;67739;52.986;8.894;2023-02-15T00:57:53;10.40;;;3.03;;
78443;SDS011;67739;52.986;8.894;2023-02-15T01:00:18;10.93;;;3.63;;
78443;SDS011;67739;52.986;8.894;2023-02-15T01:02:43;9.07;;;2.80;;
78443;SDS011;67739;52.986;8.894;2023-02-15T01:05:09;7.43;;;2.95;;
78443;SDS011;67739;52.986;8.894;2023-02-15T01:07:34;9.73;;;3.53;;
78443;SDS011;67739;52.986;8.894;2023-02-15T01:09:59;9.90;;;3.92;;
78443;SDS011;67739;52.986;8.894;2023-02-15T01:12:24;9.18;;;2.92;;
78443;SDS011;67739;52.986;8.894;2023-02-15T01:14:50;10.27;;;3.17;;
78443;SDS011;67739;52.986;8.894;2023-02-15T01:17:15;8.75;;;3.28;;
78443;SDS011;67739;52.986;8.894;2023-02-15T01:19:40;6.63;;;2.55;;
78443;SDS011;67739;52.986;8.894;2023-02-15T01:22:06;7.28;;;2.53;;
78443;SDS011;67739;52.986;8.894;2023-02-15T01:24:31;7.25;;;2.65;;
78443;SDS011;67739;52.986;8.894;2023-02-15T01:26:57;10.90;;;2.85;;
78443;SDS011;67739;52.986;8.894;2023-02-15T01:29:22;9.50;;;2.72;;
78443;SDS011;67739;52.986;8.894;2023-02-15T01:31:47;9.25;;;2.90;;
78443;SDS011;67739;52.986;8.894;2023-02-15T01:34:12;8.55;;;3.00;;
78443;SDS011;67739;52.986;8.894;2023-02-15T01:36:38;7.90;;;2.22;;
78443;SDS011;67739;52.986;8.894;2023-02-15T01:39:03;7.00;;;2.25;;
78443;SDS011;67739;52.986;8.894;2023-02-15T01:41:28;9.18;;;2.72;;
78443;SDS011;67739;52.986;8.894;2023-02-15T01:43:58;8.05;;;2.20;;
78443;SDS011;67739;52.986;8.894;2023-02-15T01:46:31;7.63;;;2.30;;
78443;SDS011;67739;52.986;8.894;2023-02-15T01:49:34;7.90;;;3.35;;
78443;SDS011;67739;52.986;8.894;2023-02-15T01:51:53;8.98;;;2.80;;
78443;SDS011;67739;52.986;8.894;2023-02-15T01:54:21;7.38;;;2.53;;
78443;SDS011;67739;52.986;8.894;2023-02-15T01:56:52;6.28;;;2.13;;
78443;SDS011;67739;52.986;8.894;2023-02-15T01:59:23;6.78;;;2.50;;
78443;SDS011;67739;52.986;8.894;2023-02-15T02:01:53;8.38;;;2.28;;
78443;SDS011;67739;52.986;8.894;2023-02-15T02:06:58;7.35;;;1.92;;
78443;SDS011;67739;52.986;8.894;2023-02-15T02:09:24;5.82;;;2.40;;
78443;SDS011;67739;52.986;8.894;2023-02-15T02:11:51;7.45;;;2.05;;
78443;SDS011;67739;52.986;8.894;2023-02-15T02:14:18;8.35;;;2.60;;
78443;SDS011;67739;52.986;8.894;2023-02-15T02:22:58;6.85;;;2.38;;
78443;SDS011;67739;52.986;8.894;2023-02-15T02:28:40;6.65;;;2.00;;
78443;SDS011;67739;52.986;8.894;2023-02-15T02:37:00;5.00;;;1.88;;
78443;SDS011;67739;52.986;8.894;2023-02-15T02:39:43;5.82;;;1.95;;
78443;SDS011;67739;52.986;8.894;2023-02-15T02:44:56;8.33;;;2.50;;
78443;SDS011;67739;52.986;8.894;2023-02-15T02:47:31;7.20;;;1.75;;
78443;SDS011;67739;52.986;8.894;2023-02-15T02:50:02;7.97;;;2.20;;
78443;SDS011;67739;52.986;8.894;2023-02-15T02:52:49;7.30;;;2.10;;
78443;SDS011;67739;52.986;8.894;2023-02-15T02:55:17;6.57;;;1.88;;
78443;SDS011;67739;52.986;8.894;2023-02-15T02:57:46;4.97;;;1.40;;
78443;SDS011;67739;52.986;8.894;2023-02-15T03:00:18;5.38;;;2.00;;
78443;SDS011;67739;52.986;8.894;2023-02-15T03:02:45;5.78;;;1.90;;
78443;SDS011;67739;52.986;8.894;2023-02-15T03:05:15;6.25;;;1.67;;
78443;SDS011;67739;52.986;8.894;2023-02-15T03:07:46;6.32;;;1.80;;
78443;SDS011;67739;52.986;8.894;2023-02-15T03:10:14;5.70;;;1.67;;
78443;SDS011;67739;52.986;8.894;2023-02-15T03:12:40;5.20;;;1.60;;
78443;SDS011;67739;52.986;8.894;2023-02-15T03:17:42;5.38;;;1.80;;
78443;SDS011;67739;52.986;8.894;2023-02-15T03:22:49;5.07;;;1.60;;
78443;SDS011;67739;52.986;8.894;2023-02-15T03:25:25;5.63;;;1.70;;
78443;SDS011;67739;52.986;8.894;2023-02-15T03:27:58;5.63;;;1.70;;
78443;SDS011;67739;52.986;8.894;2023-02-15T03:30:29;7.13;;;2.28;;
78443;SDS011;67739;52.986;8.894;2023-02-15T03:32:57;4.43;;;1.40;;
78443;SDS011;67739;52.986;8.894;2023-02-15T03:35:25;4.88;;;1.40;;
78443;SDS011;67739;52.986;8.894;2023-02-15T03:37:58;4.82;;;1.70;;
78443;SDS011;67739;52.986;8.894;2023-02-15T03:40:26;4.75;;;1.05;;
78443;SDS011;67739;52.986;8.894;2023-02-15T03:43:15;5.15;;;1.52;;
78443;SDS011;67739;52.986;8.894;2023-02-15T03:45:47;5.47;;;1.80;;
78443;SDS011;67739;52.986;8.894;2023-02-15T03:48:27;4.28;;;1.58;;
78443;SDS011;67739;52.986;8.894;2023-02-15T03:50:58;4.90;;;1.35;;
78443;SDS011;67739;52.986;8.894;2023-02-15T03:53:48;5.05;;;1.85;;
78443;SDS011;67739;52.986;8.894;2023-02-15T03:56:14;5.00;;;1.50;;
78443;SDS011;67739;52.986;8.894;2023-02-15T03:58:40;5.90;;;1.60;;
78443;SDS011;67739;52.986;8.894;2023-02-15T04:01:27;5.50;;;1.50;;
78443;SDS011;67739;52.986;8.894;2023-02-15T04:04:20;8.05;;;1.73;;
78443;SDS011;67739;52.986;8.894;2023-02-15T04:06:49;6.28;;;1.90;;
78443;SDS011;67739;52.986;8.894;2023-02-15T04:09:15;5.70;;;1.60;;
78443;SDS011;67739;52.986;8.894;2023-02-15T04:11:59;6.55;;;1.67;;
78443;SDS011;67739;52.986;8.894;2023-02-15T04:14:24;5.10;;;1.52;;
78443;SDS011;67739;52.986;8.894;2023-02-15T04:17:08;4.97;;;1.20;;
78443;SDS011;67739;52.986;8.894;2023-02-15T04:19:34;5.18;;;1.40;;
78443;SDS011;67739;52.986;8.894;2023-02-15T04:22:18;4.82;;;1.42;;
78443;SDS011;67739;52.986;8.894;2023-02-15T04:27:44;4.10;;;1.00;;
78443;SDS011;67739;52.986;8.894;2023-02-15T04:30:12;4.13;;;1.35;;
78443;SDS011;67739;52.986;8.894;2023-02-15T04:32:39;5.50;;;1.50;;
78443;SDS011;67739;52.986;8.894;2023-02-15T04:35:05;4.30;;;1.23;;
78443;SDS011;67739;52.986;8.894;2023-02-15T04:37:32;4.85;;;1.15;;
78443;SDS011;67739;52.986;8.894;2023-02-15T04:39:57;4.95;;;1.60;;
78443;SDS011;67739;52.986;8.894;2023-02-15T04:42:25;4.57;;;1.40;;
78443;SDS011;67739;52.986;8.894;2023-02-15T04:44:51;4.15;;;1.30;;
78443;SDS011;67739;52.986;8.894;2023-02-15T04:47:17;4.65;;;1.52;;
78443;SDS011;67739;52.986;8.894;2023-02-15T04:49:43;6.10;;;1.63;;
78443;SDS011;67739;52.986;8.894;2023-02-15T04:52:08;3.63;;;1.23;;
78443;SDS011;67739;52.986;8.894;2023-02-15T04:54:33;6.10;;;1.67;;
78443;SDS011;67739;52.986;8.894;2023-02-15T04:56:59;4.93;;;1.50;;
78443;SDS011;67739;52.986;8.894;2023-02-15T04:59:24;4.63;;;1.70;;
78443;SDS011;67739;52.986;8.894;2023-02-15T05:01:49;5.85;;;1.52;;
78443;SDS011;67739;52.986;8.894;2023-02-15T05:04:15;5.15;;;1.40;;
78443;SDS011;67739;52.986;8.894;2023-02-15T05:06:40;3.75;;;1.20;;
78443;SDS011;67739;52.986;8.894;2023-02-15T05:09:05;3.63;;;1.27;;
78443;SDS011;67739;52.986;8.894;2023-02-15T05:11:31;3.95;;;1.33;;
78443;SDS011;67739;52.986;8.894;2023-02-15T05:13:56;4.18;;;1.30;;
78443;SDS011;67739;52.986;8.894;2023-02-15T05:16:21;4.25;;;1.17;;
78443;SDS011;67739;52.986;8.894;2023-02-15T05:18:46;4.18;;;1.42;;
78443;SDS011;67739;52.986;8.894;2023-02-15T05:21:12;3.67;;;1.27;;
78443;SDS011;67739;52.986;8.894;2023-02-15T05:23:38;4.65;;;1.30;;
78443;SDS011;67739;52.986;8.894;2023-02-15T05:26:04;3.95;;;1.02;;
78443;SDS011;67739;52.986;8.894;2023-02-15T05:28:48;4.35;;;1.00;;
78443;SDS011;67739;52.986;8.894;2023-02-15T05:31:14;3.10;;;1.20;;
78443;SDS011;67739;52.986;8.894;2023-02-15T05:33:42;3.88;;;1.02;;
78443;SDS011;67739;52.986;8.894;2023-02-15T05:36:08;4.90;;;1.70;;
78443;SDS011;67739;52.986;8.894;2023-02-15T05:38:34;4.10;;;1.48;;
78443;SDS011;67739;52.986;8.894;2023-02-15T05:41:01;3.72;;;1.30;;
78443;SDS011;67739;52.986;8.894;2023-02-15T05:43:27;4.43;;;1.15;;
78443;SDS011;67739;52.986;8.894;2023-02-15T05:45:53;3.40;;;1.20;;
78443;SDS011;67739;52.986;8.894;2023-02-15T05:48:20;3.90;;;1.15;;
78443;SDS011;67739;52.986;8.894;2023-02-15T05:50:55;4.22;;;1.35;;
78443;SDS011;67739;52.986;8.894;2023-02-15T05:53:29;4.10;;;1.25;;
78443;SDS011;67739;52.986;8.894;2023-02-15T05:55:56;4.15;;;1.20;;
78443;SDS011;67739;52.986;8.894;2023-02-15T05:58:27;4.78;;;1.13;;
78443;SDS011;67739;52.986;8.894;2023-02-15T06:03:39;4.03;;;1.30;;
78443;SDS011;67739;52.986;8.894;2023-02-15T06:06:05;4.18;;;1.30;;
78443;SDS011;67739;52.986;8.894;2023-02-15T06:08:31;3.38;;;1.33;;
78443;SDS011;67739;52.986;8.894;2023-02-15T06:10:57;4.43;;;1.30;;
78443;SDS011;67739;52.986;8.894;2023-02-15T06:13:22;4.68;;;1.50;;
78443;SDS011;67739;52.986;8.894;2023-02-15T06:15:48;3.70;;;1.05;;
78443;SDS011;67739;52.986;8.894;2023-02-15T06:18:13;3.38;;;1.40;;
78443;SDS011;67739;52.986;8.894;2023-02-15T06:20:38;3.78;;;0.90;;
78443;SDS011;67739;52.986;8.894;2023-02-15T06:23:04;2.90;;;0.98;;
78443;SDS011;67739;52.986;8.894;2023-02-15T06:25:29;5.45;;;1.88;;
78443;SDS011;67739;52.986;8.894;2023-02-15T06:27:54;4.85;;;1.50;;
78443;SDS011;67739;52.986;8.894;2023-02-15T06:30:20;2.70;;;0.93;;
78443;SDS011;67739;52.986;8.894;2023-02-15T06:32:45;5.22;;;1.20;;
78443;SDS011;67739;52.986;8.894;2023-02-15T06:35:10;3.65;;;1.45;;
78443;SDS011;67739;52.986;8.894;2023-02-15T06:37:36;4.70;;;1.33;;
78443;SDS011;67739;52.986;8.894;2023-02-15T06:40:02;4.07;;;1.20;;
78443;SDS011;67739;52.986;8.894;2023-02-15T06:42:28;2.97;;;0.98;;
78443;SDS011;67739;52.986;8.894;2023-02-15T06:44:53;4.22;;;1.23;;
78443;SDS011;67739;52.986;8.894;2023-02-15T06:47:19;4.70;;;1.63;;
78443;SDS011;67739;52.986;8.894;2023-02-15T06:49:44;5.03;;;1.60;;
78443;SDS011;67739;52.986;8.894;2023-02-15T06:52:09;3.72;;;1.20;;
78443;SDS011;67739;52.986;8.894;2023-02-15T06:54:35;3.60;;;1.35;;
78443;SDS011;67739;52.986;8.894;2023-02-15T06:57:00;3.80;;;1.30;;
78443;SDS011;67739;52.986;8.894;2023-02-15T06:59:25;3.97;;;1.33;;
78443;SDS011;67739;52.986;8.894;2023-02-15T07:01:51;3.28;;;1.00;;
78443;SDS011;67739;52.986;8.894;2023-02-15T07:04:16;4.78;;;1.40;;
78443;SDS011;67739;52.986;8.894;2023-02-15T07:06:41;2.88;;;1.13;;
78443;SDS011;67739;52.986;8.894;2023-02-15T07:09:07;3.00;;;1.15;;
78443;SDS011;67739;52.986;8.894;2023-02-15T07:11:32;3.78;;;1.30;;
78443;SDS011;67739;52.986;8.894;2023-02-15T07:14:16;5.68;;;1.05;;
78443;SDS011;67739;52.986;8.894;2023-02-15T07:16:42;3.47;;;0.98;;
78443;SDS011;67739;52.986;8.894;2023-02-15T07:19:07;4.00;;;1.33;;
78443;SDS011;67739;52.986;8.894;2023-02-15T07:21:33;4.50;;;1.38;;
78443;SDS011;67739;52.986;8.894;2023-02-15T07:23:59;3.50;;;1.00;;
78443;SDS011;67739;52.986;8.894;2023-02-15T07:26:25;4.07;;;1.10;;
78443;SDS011;67739;52.986;8.894;2023-02-15T07:28:50;6.38;;;1.67;;
78443;SDS011;67739;52.986;8.894;2023-02-15T07:31:16;3.88;;;1.02;;
78443;SDS011;67739;52.986;8.894;2023-02-15T07:33:41;4.43;;;1.10;;
78443;SDS011;67739;52.986;8.894;2023-02-15T07:36:07;6.53;;;0.90;;
78443;SDS011;67739;52.986;8.894;2023-02-15T07:38:36;5.90;;;1.20;;
78443;SDS011;67739;52.986;8.894;2023-02-15T07:41:04;5.45;;;2.05;;
78443;SDS011;67739;52.986;8.894;2023-02-15T07:43:35;3.85;;;0.98;;
78443;SDS011;67739;52.986;8.894;2023-02-15T07:46:05;3.63;;;1.00;;
78443;SDS011;67739;52.986;8.894;2023-02-15T07:48:32;3.05;;;1.00;;
78443;SDS011;67739;52.986;8.894;2023-02-15T07:50:59;3.15;;;0.98;;
78443;SDS011;67739;52.986;8.894;2023-02-15T07:53:25;3.83;;;1.10;;
78443;SDS011;67739;52.986;8.894;2023-02-15T07:55:51;5.40;;;1.30;;
78443;SDS011;67739;52.986;8.894;2023-02-15T07:58:17;3.90;;;0.95;;
78443;SDS011;67739;52.986;8.894;2023-02-15T08:00:43;2.72;;;0.93;;
78443;SDS011;67739;52.986;8.894;2023-02-15T08:03:26;4.25;;;0.93;;
78443;SDS011;67739;52.986;8.894;2023-02-15T08:05:57;3.28;;;1.27;;
78443;SDS011;67739;52.986;8.894;2023-02-15T08:08:24;6.13;;;1.08;;
78443;SDS011;67739;52.986;8.894;2023-02-15T08:11:05;3.90;;;1.20;;
78443;SDS011;67739;52.986;8.894;2023-02-15T08:14:13;4.20;;;1.75;;
78443;SDS011;67739;52.986;8.894;2023-02-15T08:19:14;4.03;;;1.23;;
78443;SDS011;67739;52.986;8.894;2023-02-15T08:21:42;4.18;;;1.38;;
78443;SDS011;67739;52.986;8.894;2023-02-15T08:24:10;4.32;;;1.63;;
78443;SDS011;67739;52.986;8.894;2023-02-15T08:26:37;6.18;;;1.20;;
78443;SDS011;67739;52.986;8.894;2023-02-15T08:29:03;3.90;;;1.42;;
78443;SDS011;67739;52.986;8.894;2023-02-15T08:31:30;3.67;;;1.08;;
78443;SDS011;67739;52.986;8.894;2023-02-15T08:33:55;4.38;;;1.30;;
78443;SDS011;67739;52.986;8.894;2023-02-15T08:36:23;4.63;;;1.80;;
78443;SDS011;67739;52.986;8.894;2023-02-15T08:38:50;4.05;;;1.20;;
78443;SDS011;67739;52.986;8.894;2023-02-15T08:43:44;4.28;;;1.00;;
78443;SDS011;67739;52.986;8.894;2023-02-15T08:46:12;7.15;;;1.15;;
78443;SDS011;67739;52.986;8.894;2023-02-15T08:48:38;5.15;;;1.27;;
78443;SDS011;67739;52.986;8.894;2023-02-15T08:51:05;4.50;;;1.30;;
78443;SDS011;67739;52.986;8.894;2023-02-15T08:53:31;5.20;;;1.88;;
78443;SDS011;67739;52.986;8.894;2023-02-15T08:55:57;4.75;;;1.73;;
78443;SDS011;67739;52.986;8.894;2023-02-15T08:58:23;4.97;;;1.40;;
78443;SDS011;67739;52.986;8.894;2023-02-15T09:00:49;4.40;;;1.48;;
78443;SDS011;67739;52.986;8.894;2023-02-15T09:03:15;3.47;;;1.30;;
78443;SDS011;67739;52.986;8.894;2023-02-15T09:05:41;4.35;;;1.30;;
78443;SDS011;67739;52.986;8.894;2023-02-15T09:08:06;3.00;;;1.17;;
78443;SDS011;67739;52.986;8.894;2023-02-15T09:10:31;4.45;;;1.27;;
78443;SDS011;67739;52.986;8.894;2023-02-15T09:12:57;5.10;;;1.25;;
78443;SDS011;67739;52.986;8.894;2023-02-15T09:15:22;3.20;;;1.20;;
78443;SDS011;67739;52.986;8.894;2023-02-15T09:17:47;4.18;;;1.60;;
78443;SDS011;67739;52.986;8.894;2023-02-15T09:20:12;4.82;;;1.30;;
78443;SDS011;67739;52.986;8.894;2023-02-15T09:22:38;2.92;;;1.10;;
78443;SDS011;67739;52.986;8.894;2023-02-15T09:25:03;3.10;;;1.05;;
78443;SDS011;67739;52.986;8.894;2023-02-15T09:27:29;3.75;;;1.38;;
78443;SDS011;67739;52.986;8.894;2023-02-15T09:29:54;3.80;;;1.20;;
78443;SDS011;67739;52.986;8.894;2023-02-15T09:32:20;5.82;;;1.55;;
78443;SDS011;67739;52.986;8.894;2023-02-15T09:34:47;5.07;;;1.25;;
78443;SDS011;67739;52.986;8.894;2023-02-15T09:37:12;5.13;;;1.60;;
78443;SDS011;67739;52.986;8.894;2023-02-15T09:39:38;4.70;;;1.95;;
78443;SDS011;67739;52.986;8.894;2023-02-15T10:17:14;4.68;;;1.45;;
78443;SDS011;67739;52.986;8.894;2023-02-15T10:19:53;6.55;;;1.92;;
78443;SDS011;67739;52.986;8.894;2023-02-15T10:28:11;5.43;;;1.60;;
78443;SDS011;67739;52.986;8.894;2023-02-15T10:30:46;6.78;;;2.63;;
78443;SDS011;67739;52.986;8.894;2023-02-15T10:35:52;5.20;;;1.92;;
78443;SDS011;67739;52.986;8.894;2023-02-15T10:38:36;6.00;;;1.88;;
78443;SDS011;67739;52.986;8.894;2023-02-15T10:41:31;4.45;;;1.60;;
78443;SDS011;67739;52.986;8.894;2023-02-15T10:44:23;5.32;;;1.80;;
78443;SDS011;67739;52.986;8.894;2023-02-15T10:52:46;4.65;;;1.35;;
78443;SDS011;67739;52.986;8.894;2023-02-15T11:07:16;6.00;;;2.00;;
78443;SDS011;67739;52.986;8.894;2023-02-15T11:09:49;5.65;;;1.98;;
78443;SDS011;67739;52.986;8.894;2023-02-15T11:12:20;4.72;;;1.88;;
78443;SDS011;67739;52.986;8.894;2023-02-15T11:14:50;4.05;;;1.58;;
78443;SDS011;67739;52.986;8.894;2023-02-15T11:17:37;5.88;;;1.50;;
78443;SDS011;67739;52.986;8.894;2023-02-15T11:22:54;4.82;;;1.65;;
78443;SDS011;67739;52.986;8.894;2023-02-15T11:25:24;6.50;;;1.88;;
78443;SDS011;67739;52.986;8.894;2023-02-15T11:27:55;5.30;;;1.80;;
78443;SDS011;67739;52.986;8.894;2023-02-15T11:30:21;5.25;;;1.83;;
78443;SDS011;67739;52.986;8.894;2023-02-15T11:32:59;5.07;;;2.00;;
78443;SDS011;67739;52.986;8.894;2023-02-15T11:35:30;5.18;;;2.05;;
78443;SDS011;67739;52.986;8.894;2023-02-15T11:38:03;5.03;;;1.73;;
78443;SDS011;67739;52.986;8.894;2023-02-15T11:43:23;5.30;;;1.85;;
78443;SDS011;67739;52.986;8.894;2023-02-15T11:45:55;5.03;;;2.13;;
78443;SDS011;67739;52.986;8.894;2023-02-15T11:48:20;6.53;;;2.53;;
78443;SDS011;67739;52.986;8.894;2023-02-15T11:50:46;5.28;;;2.00;;
78443;SDS011;67739;52.986;8.894;2023-02-15T11:53:12;5.20;;;2.20;;
78443;SDS011;67739;52.986;8.894;2023-02-15T11:55:41;6.00;;;2.42;;
78443;SDS011;67739;52.986;8.894;2023-02-15T11:58:11;6.43;;;2.42;;
78443;SDS011;67739;52.986;8.894;2023-02-15T12:00:56;6.40;;;1.77;;
78443;SDS011;67739;52.986;8.894;2023-02-15T12:06:32;5.85;;;1.88;;
78443;SDS011;67739;52.986;8.894;2023-02-15T12:11:50;6.07;;;2.15;;
78443;SDS011;67739;52.986;8.894;2023-02-15T12:14:16;6.05;;;2.20;;
78443;SDS011;67739;52.986;8.894;2023-02-15T12:16:50;7.65;;;2.85;;
78443;SDS011;67739;52.986;8.894;2023-02-15T12:19:31;6.53;;;2.45;;
78443;SDS011;67739;52.986;8.894;2023-02-15T12:22:02;6.25;;;2.67;;
78443;SDS011;67739;52.986;8.894;2023-02-15T12:24:30;4.93;;;2.00;;
78443;SDS011;67739;52.986;8.894;2023-02-15T12:27:01;5.28;;;1.95;;
78443;SDS011;67739;52.986;8.894;2023-02-15T12:29:42;5.03;;;2.00;;
78443;SDS011;67739;52.986;8.894;2023-02-15T12:32:15;5.18;;;1.85;;
78443;SDS011;67739;52.986;8.894;2023-02-15T12:34:47;5.53;;;2.25;;
78443;SDS011;67739;52.986;8.894;2023-02-15T12:37:17;6.35;;;2.58;;
78443;SDS011;67739;52.986;8.894;2023-02-15T12:39:56;5.82;;;2.38;;
78443;SDS011;67739;52.986;8.894;2023-02-15T12:42:23;6.07;;;2.55;;
78443;SDS011;67739;52.986;8.894;2023-02-15T12:44:59;6.90;;;2.50;;
78443;SDS011;67739;52.986;8.894;2023-02-15T12:47:44;6.75;;;2.58;;
78443;SDS011;67739;52.986;8.894;2023-02-15T12:50:22;7.07;;;2.85;;
78443;SDS011;67739;52.986;8.894;2023-02-15T12:52:49;5.85;;;2.50;;
78443;SDS011;67739;52.986;8.894;2023-02-15T12:55:20;6.78;;;2.72;;
78443;SDS011;67739;52.986;8.894;2023-02-15T12:57:48;7.15;;;3.13;;
78443;SDS011;67739;52.986;8.894;2023-02-15T13:02:47;7.47;;;2.72;;
78443;SDS011;67739;52.986;8.894;2023-02-15T13:08:02;5.95;;;2.42;;
78443;SDS011;67739;52.986;8.894;2023-02-15T13:10:36;7.10;;;3.45;;
78443;SDS011;67739;52.986;8.894;2023-02-15T13:13:11;5.00;;;2.20;;
78443;SDS011;67739;52.986;8.894;2023-02-15T13:15:43;5.85;;;1.77;;
78443;SDS011;67739;52.986;8.894;2023-02-15T13:18:14;5.78;;;2.17;;
78443;SDS011;67739;52.986;8.894;2023-02-15T13:20:44;5.53;;;2.28;;
78443;SDS011;67739;52.986;8.894;2023-02-15T13:23:17;7.40;;;2.88;;
78443;SDS011;67739;52.986;8.894;2023-02-15T13:25:49;5.85;;;2.05;;
78443;SDS011;67739;52.986;8.894;2023-02-15T13:28:16;6.70;;;2.75;;
78443;SDS011;67739;52.986;8.894;2023-02-15T13:30:46;6.35;;;2.33;;
78443;SDS011;67739;52.986;8.894;2023-02-15T13:33:26;7.07;;;2.45;;
78443;SDS011;67739;52.986;8.894;2023-02-15T13:36:05;6.07;;;1.95;;
78443;SDS011;67739;52.986;8.894;2023-02-15T13:39:26;7.15;;;2.50;;
78443;SDS011;67739;52.986;8.894;2023-02-15T13:42:01;6.18;;;2.40;;
78443;SDS011;67739;52.986;8.894;2023-02-15T13:56:58;6.80;;;2.60;;
78443;SDS011;67739;52.986;8.894;2023-02-15T13:59:56;8.10;;;1.98;;
78443;SDS011;67739;52.986;8.894;2023-02-15T14:02:55;5.18;;;1.67;;
78443;SDS011;67739;52.986;8.894;2023-02-15T14:10:36;6.40;;;2.38;;
78443;SDS011;67739;52.986;8.894;2023-02-15T14:16:00;6.53;;;2.25;;
78443;SDS011;67739;52.986;8.894;2023-02-15T14:26:54;6.53;;;2.63;;
78443;SDS011;67739;52.986;8.894;2023-02-15T14:29:39;7.00;;;2.58;;
78443;SDS011;67739;52.986;8.894;2023-02-15T14:32:18;6.32;;;2.33;;
78443;SDS011;67739;52.986;8.894;2023-02-15T14:34:52;6.90;;;3.03;;
78443;SDS011;67739;52.986;8.894;2023-02-15T14:37:41;6.38;;;2.55;;
78443;SDS011;67739;52.986;8.894;2023-02-15T14:49:30;6.18;;;2.17;;
78443;SDS011;67739;52.986;8.894;2023-02-15T14:54:12;6.53;;;2.50;;
78443;SDS011;67739;52.986;8.894;2023-02-15T14:59:25;7.07;;;2.58;;
78443;SDS011;67739;52.986;8.894;2023-02-15T15:09:38;7.25;;;2.63;;
78443;SDS011;67739;52.986;8.894;2023-02-15T15:14:46;6.00;;;2.28;;
78443;SDS011;67739;52.986;8.894;2023-02-15T15:17:51;9.02;;;2.83;;
78443;SDS011;67739;52.986;8.894;2023-02-15T15:20:12;6.90;;;2.92;;
78443;SDS011;67739;52.986;8.894;2023-02-15T15:22:42;7.30;;;2.95;;
78443;SDS011;67739;52.986;8.894;2023-02-15T15:25:11;7.45;;;2.30;;
78443;SDS011;67739;52.986;8.894;2023-02-15T15:27:57;7.95;;;2.80;;
78443;SDS011;67739;52.986;8.894;2023-02-15T15:48:53;5.95;;;2.47;;
78443;SDS011;67739;52.986;8.894;2023-02-15T15:51:31;7.32;;;2.90;;
78443;SDS011;67739;52.986;8.894;2023-02-15T15:53:58;8.38;;;2.72;;
78443;SDS011;67739;52.986;8.894;2023-02-15T15:56:33;9.82;;;2.70;;
78443;SDS011;67739;52.986;8.894;2023-02-15T15:59:07;6.78;;;2.35;;
78443;SDS011;67739;52.986;8.894;2023-02-15T16:01:42;7.55;;;2.83;;
78443;SDS011;67739;52.986;8.894;2023-02-15T16:04:12;5.45;;;2.08;;
78443;SDS011;67739;52.986;8.894;2023-02-15T16:06:46;8.70;;;2.05;;
78443;SDS011;67739;52.986;8.894;2023-02-15T16:09:19;7.82;;;2.95;;
78443;SDS011;67739;52.986;8.894;2023-02-15T16:11:48;6.90;;;2.50;;
78443;SDS011;67739;52.986;8.894;2023-02-15T16:14:25;6.30;;;2.50;;
78443;SDS011;67739;52.986;8.894;2023-02-15T16:16:59;6.57;;;2.50;;
78443;SDS011;67739;52.986;8.894;2023-02-15T16:19:27;7.63;;;2.78;;
78443;SDS011;67739;52.986;8.894;2023-02-15T16:21:57;7.88;;;3.25;;
78443;SDS011;67739;52.986;8.894;2023-02-15T16:24:26;6.88;;;2.00;;
78443;SDS011;67739;52.986;8.894;2023-02-15T16:29:46;7.03;;;2.10;;
78443;SDS011;67739;52.986;8.894;2023-02-15T16:37:18;7.43;;;3.25;;
78443;SDS011;67739;52.986;8.894;2023-02-15T16:39:46;6.65;;;2.60;;
78443;SDS011;67739;52.986;8.894;2023-02-15T16:42:13;8.27;;;2.70;;
78443;SDS011;67739;52.986;8.894;2023-02-15T16:44:40;6.53;;;2.38;;
78443;SDS011;67739;52.986;8.894;2023-02-15T16:47:16;6.18;;;2.13;;
78443;SDS011;67739;52.986;8.894;2023-02-15T16:49:47;6.20;;;2.42;;
78443;SDS011;67739;52.986;8.894;2023-02-15T16:52:21;6.50;;;2.17;;
78443;SDS011;67739;52.986;8.894;2023-02-15T16:55:00;6.97;;;2.30;;
78443;SDS011;67739;52.986;8.894;2023-02-15T16:57:30;6.22;;;2.42;;
78443;SDS011;67739;52.986;8.894;2023-02-15T17:00:03;6.90;;;2.50;;
78443;SDS011;67739;52.986;8.894;2023-02-15T17:02:31;7.28;;;2.78;;
78443;SDS011;67739;52.986;8.894;2023-02-15T17:05:04;6.40;;;2.50;;
78443;SDS011;67739;52.986;8.894;2023-02-15T17:07:31;5.25;;;2.25;;
78443;SDS011;67739;52.986;8.894;2023-02-15T17:09:58;7.90;;;2.85;;
78443;SDS011;67739;52.986;8.894;2023-02-15T17:17:57;8.15;;;2.95;;
78443;SDS011;67739;52.986;8.894;2023-02-15T17:20:25;8.75;;;2.70;;
78443;SDS011;67739;52.986;8.894;2023-02-15T17:22:50;7.97;;;2.45;;
78443;SDS011;67739;52.986;8.894;2023-02-15T17:25:25;7.95;;;2.40;;
78443;SDS011;67739;52.986;8.894;2023-02-15T17:27:57;14.38;;;4.07;;
78443;SDS011;67739;52.986;8.894;2023-02-15T17:30:33;9.18;;;2.60;;
78443;SDS011;67739;52.986;8.894;2023-02-15T17:33:03;6.43;;;2.15;;
78443;SDS011;67739;52.986;8.894;2023-02-15T17:35:29;6.35;;;2.33;;
78443;SDS011;67739;52.986;8.894;2023-02-15T17:38:01;10.27;;;3.30;;
78443;SDS011;67739;52.986;8.894;2023-02-15T17:40:43;8.48;;;3.28;;
78443;SDS011;67739;52.986;8.894;2023-02-15T17:43:08;11.68;;;3.67;;
78443;SDS011;67739;52.986;8.894;2023-02-15T17:45:34;8.50;;;3.67;;
78443;SDS011;67739;52.986;8.894;2023-02-15T17:48:02;11.40;;;3.63;;
78443;SDS011;67739;52.986;8.894;2023-02-15T17:50:30;7.93;;;2.92;;
78443;SDS011;67739;52.986;8.894;2023-02-15T17:52:55;8.77;;;3.15;;
78443;SDS011;67739;52.986;8.894;2023-02-15T17:55:22;8.30;;;2.78;;
78443;SDS011;67739;52.986;8.894;2023-02-15T17:58:04;8.57;;;3.13;;
78443;SDS011;67739;52.986;8.894;2023-02-15T18:00:32;8.05;;;3.35;;
78443;SDS011;67739;52.986;8.894;2023-02-15T18:03:18;10.48;;;3.20;;
78443;SDS011;67739;52.986;8.894;2023-02-15T18:06:02;10.23;;;3.35;;
78443;SDS011;67739;52.986;8.894;2023-02-15T18:08:46;11.27;;;3.50;;
78443;SDS011;67739;52.986;8.894;2023-02-15T18:14:02;9.77;;;3.42;;
78443;SDS011;67739;52.986;8.894;2023-02-15T18:16:29;10.57;;;3.60;;
78443;SDS011;67739;52.986;8.894;2023-02-15T18:18:58;9.82;;;3.53;;
78443;SDS011;67739;52.986;8.894;2023-02-15T18:21:23;11.77;;;3.58;;
78443;SDS011;67739;52.986;8.894;2023-02-15T18:23:49;14.63;;;3.85;;
78443;SDS011;67739;52.986;8.894;2023-02-15T18:26:18;11.80;;;4.60;;